createdAt,value
2018-08-22T00:02:00.957Z,22.74
2018-08-22T00:04:29.884Z,22.82
2018-08-22T00:06:58.783Z,22.98
2018-08-22T00:09:27.753Z,22.97
2018-08-22T00:11:56.732Z,22.99
2018-08-22T00:14:25.658Z,22.85
2018-08-22T00:16:54.573Z,22.87
2018-08-22T00:19:23.610Z,22.89
2018-08-22T00:21:52.532Z,23.03
2018-08-22T00:24:21.378Z,23.03
2018-08-22T00:26:50.242Z,23.14
2018-08-22T00:29:19.283Z,23.09
2018-08-22T00:31:48.106Z,23.10
2018-08-22T00:34:17.078Z,23.17
2018-08-22T00:36:46.180Z,23.20
2018-08-22T00:39:15.100Z,23.11
2018-08-22T00:41:44.035Z,23.17
2018-08-22T00:44:13.787Z,23.12
2018-08-22T00:46:42.754Z,23.47
2018-08-22T00:49:11.751Z,22.90
2018-08-22T00:51:40.631Z,22.74
2018-08-22T00:54:09.579Z,22.72
2018-08-22T00:56:38.522Z,22.52
2018-08-22T00:59:07.433Z,22.79
2018-08-22T01:01:36.317Z,21.95
2018-08-22T01:04:05.191Z,22.06
2018-08-22T01:06:34.037Z,21.88
2018-08-22T01:09:02.968Z,21.72
2018-08-22T01:11:31.906Z,21.74
2018-08-22T01:14:00.870Z,21.80
2018-08-22T01:16:29.778Z,21.87
2018-08-22T01:18:58.748Z,21.83
2018-08-22T01:21:27.630Z,21.92
2018-08-22T01:23:56.548Z,21.80
2018-08-22T01:26:25.444Z,21.78
2018-08-22T01:28:54.352Z,21.93
2018-08-22T01:31:23.400Z,21.84
2018-08-22T01:33:52.481Z,21.86
2018-08-22T01:36:21.416Z,21.90
2018-08-22T01:38:50.339Z,21.87
2018-08-22T01:41:19.261Z,21.86
2018-08-22T01:43:48.185Z,21.86
2018-08-22T01:46:17.060Z,21.74
2018-08-22T01:48:46.019Z,21.85
2018-08-22T01:51:14.935Z,21.87
2018-08-22T01:53:43.847Z,21.78
2018-08-22T01:56:12.735Z,21.76
2018-08-22T01:58:41.622Z,21.68
2018-08-22T02:01:10.508Z,21.66
2018-08-22T02:03:39.387Z,21.57
2018-08-22T02:06:08.248Z,21.66
2018-08-22T02:08:37.178Z,21.59
2018-08-22T02:11:06.151Z,21.68
2018-08-22T02:13:34.961Z,21.71
2018-08-22T02:16:03.935Z,21.75
2018-08-22T02:18:32.878Z,21.79
2018-08-22T02:21:01.828Z,21.60
2018-08-22T02:23:30.663Z,21.28
2018-08-22T02:25:59.578Z,20.99
2018-08-22T02:28:28.466Z,21.11
2018-08-22T02:30:57.387Z,21.07
2018-08-22T02:33:26.287Z,21.10
2018-08-22T02:35:55.211Z,21.06
2018-08-22T02:38:24.122Z,21.02
2018-08-22T02:40:54.872Z,20.95
2018-08-22T02:43:23.902Z,20.87
2018-08-22T02:45:52.772Z,20.94
2018-08-22T02:48:21.672Z,21.08
2018-08-22T02:50:50.520Z,21.07
2018-08-22T02:53:19.393Z,21.16
2018-08-22T02:55:48.286Z,21.30
2018-08-22T02:58:17.158Z,21.27
2018-08-22T03:00:46.008Z,21.35
2018-08-22T03:03:14.934Z,21.41
2018-08-22T03:05:43.748Z,21.21
2018-08-22T03:08:13.520Z,21.22
2018-08-22T03:10:42.412Z,21.29
2018-08-22T03:13:11.481Z,21.16
2018-08-22T03:15:40.363Z,21.29
2018-08-22T03:18:09.221Z,21.41
2018-08-22T03:20:38.049Z,21.47
2018-08-22T03:23:06.888Z,21.60
2018-08-22T03:25:35.680Z,21.59
2018-08-22T03:28:04.461Z,21.53
2018-08-22T03:30:33.233Z,21.44
2018-08-22T03:33:02.125Z,21.49
2018-08-22T03:35:30.992Z,21.39
2018-08-22T03:37:59.770Z,21.39
2018-08-22T03:40:28.577Z,21.56
2018-08-22T03:42:57.486Z,21.68
2018-08-22T03:45:26.298Z,21.75
2018-08-22T03:47:55.220Z,21.54
2018-08-22T03:50:24.054Z,21.38
2018-08-22T03:52:52.842Z,21.32
2018-08-22T03:55:21.745Z,21.29
2018-08-22T03:57:50.583Z,21.38
2018-08-22T04:00:19.419Z,21.45
2018-08-22T04:02:48.275Z,21.35
2018-08-22T04:05:17.093Z,21.44
2018-08-22T04:07:45.911Z,21.45
2018-08-22T04:10:14.730Z,21.52
2018-08-22T04:12:43.496Z,21.63
2018-08-22T04:15:12.323Z,21.64
2018-08-22T04:17:41.714Z,21.72
2018-08-22T04:20:10.621Z,21.78
2018-08-22T04:22:40.320Z,21.60
2018-08-22T04:25:09.599Z,21.57
2018-08-22T04:27:38.405Z,21.63
2018-08-22T04:30:07.271Z,21.77
2018-08-22T04:32:36.122Z,21.72
2018-08-22T04:35:04.938Z,21.78
2018-08-22T04:37:33.699Z,21.79
2018-08-22T04:40:02.520Z,21.88
2018-08-22T04:42:31.288Z,21.77
2018-08-22T04:45:00.080Z,21.91
2018-08-22T04:47:28.904Z,21.89
2018-08-22T04:49:57.694Z,21.83
2018-08-22T04:52:26.497Z,21.79
2018-08-22T04:54:55.326Z,21.78
2018-08-22T04:57:24.110Z,21.77
2018-08-22T04:59:52.908Z,21.78
2018-08-22T05:02:21.705Z,21.81
2018-08-22T05:04:50.495Z,21.81
2018-08-22T05:07:19.495Z,21.79
2018-08-22T05:09:48.310Z,21.76
2018-08-22T05:12:17.113Z,21.77
2018-08-22T05:14:45.979Z,21.85
2018-08-22T05:17:14.846Z,21.89
2018-08-22T05:19:43.644Z,22.04
2018-08-22T05:22:12.404Z,21.98
2018-08-22T05:24:41.295Z,22.21
2018-08-22T05:27:10.695Z,22.25
2018-08-22T05:29:39.516Z,22.38
2018-08-22T05:32:08.347Z,22.68
2018-08-22T05:34:37.212Z,23.12
2018-08-22T05:37:06.019Z,23.38
2018-08-22T05:39:34.863Z,23.10
2018-08-22T05:42:03.698Z,22.94
2018-08-22T05:44:32.523Z,23.04
2018-08-22T05:47:01.337Z,23.10
2018-08-22T05:49:30.147Z,23.14
2018-08-22T05:51:58.987Z,23.18
2018-08-22T05:54:27.850Z,23.25
2018-08-22T05:56:56.747Z,23.50
2018-08-22T05:59:25.569Z,23.46
2018-08-22T06:01:54.418Z,23.53
2018-08-22T06:04:23.286Z,23.76
2018-08-22T06:06:52.113Z,23.75
2018-08-22T06:09:20.977Z,23.56
2018-08-22T06:11:49.787Z,23.88
2018-08-22T06:14:18.610Z,23.91
2018-08-22T06:16:48.245Z,24.00
2018-08-22T06:19:17.087Z,24.28
2018-08-22T06:21:45.959Z,24.80
2018-08-22T06:24:14.810Z,24.89
2018-08-22T06:26:43.629Z,24.40
2018-08-22T06:29:12.483Z,24.41
2018-08-22T06:31:41.318Z,24.36
2018-08-22T06:34:10.155Z,24.84
2018-08-22T06:36:38.963Z,24.69
2018-08-22T06:39:09.646Z,24.93
2018-08-22T06:41:38.560Z,25.02
2018-08-22T06:44:07.508Z,25.22
2018-08-22T06:46:36.363Z,25.30
2018-08-22T06:49:05.261Z,25.15
2018-08-22T06:51:34.074Z,25.21
2018-08-22T06:54:02.914Z,25.12
2018-08-22T06:56:31.734Z,25.18
2018-08-22T06:59:00.580Z,25.19
2018-08-22T07:01:29.450Z,25.50
2018-08-22T07:03:58.285Z,25.78
2018-08-22T07:06:27.132Z,25.94
2018-08-22T07:08:56.021Z,26.01
2018-08-22T07:11:24.881Z,26.02
2018-08-22T07:13:53.683Z,26.23
2018-08-22T07:16:22.533Z,26.16
2018-08-22T07:18:51.375Z,26.40
2018-08-22T07:21:20.228Z,26.62
2018-08-22T07:23:49.078Z,26.60
2018-08-22T07:26:18.751Z,26.82
2018-08-22T07:28:47.598Z,27.18
2018-08-22T07:31:16.441Z,27.26
2018-08-22T07:33:45.276Z,27.23
2018-08-22T07:36:14.117Z,27.14
2018-08-22T07:38:42.995Z,27.70
2018-08-22T07:41:11.812Z,27.49
2018-08-22T07:43:40.629Z,27.25
2018-08-22T07:46:09.467Z,27.26
2018-08-22T07:48:38.557Z,26.90
2018-08-22T07:51:07.402Z,27.67
2018-08-22T07:53:36.308Z,28.23
2018-08-22T07:56:05.154Z,27.48
2018-08-22T07:58:33.977Z,28.15
2018-08-22T08:01:02.816Z,28.32
2018-08-22T08:03:31.653Z,27.95
2018-08-22T08:06:00.536Z,28.06
2018-08-22T08:08:29.392Z,28.00
2018-08-22T08:10:58.263Z,28.45
2018-08-22T08:13:28.009Z,28.78
2018-08-22T08:15:57.065Z,28.90
2018-08-22T08:18:25.937Z,28.72
2018-08-22T08:20:54.753Z,29.07
2018-08-22T08:23:23.627Z,29.26
2018-08-22T08:25:52.463Z,29.31
2018-08-22T08:28:21.260Z,29.18
2018-08-22T08:30:50.119Z,29.39
2018-08-22T08:33:18.993Z,29.83
2018-08-22T08:35:47.859Z,29.70
2018-08-22T08:38:16.761Z,30.12
2018-08-22T08:40:45.554Z,30.03
2018-08-22T08:43:14.516Z,29.87
2018-08-22T08:45:43.396Z,30.15
2018-08-22T08:48:12.218Z,30.17
2018-08-22T08:50:41.015Z,30.83
2018-08-22T08:53:09.869Z,30.64
2018-08-22T08:55:38.685Z,30.33
2018-08-22T08:58:07.583Z,30.49
2018-08-22T09:00:36.457Z,30.93
2018-08-22T09:03:05.294Z,31.28
2018-08-22T09:05:34.144Z,31.30
2018-08-22T09:08:03.015Z,31.24
2018-08-22T09:10:31.859Z,31.51
2018-08-22T09:13:00.684Z,31.38
2018-08-22T09:15:29.555Z,31.80
2018-08-22T09:17:58.389Z,31.38
2018-08-22T09:20:27.229Z,31.78
2018-08-22T09:22:56.098Z,32.53
2018-08-22T09:25:24.924Z,32.03
2018-08-22T09:27:53.731Z,31.86
2018-08-22T09:30:22.569Z,31.83
2018-08-22T09:32:51.403Z,32.28
2018-08-22T09:35:20.355Z,31.95
2018-08-22T09:37:49.198Z,32.25
2018-08-22T09:40:18.057Z,32.15
2018-08-22T09:42:46.912Z,32.16
2018-08-22T09:45:15.748Z,32.56
2018-08-22T09:47:45.309Z,33.00
2018-08-22T09:50:14.232Z,32.67
2018-08-22T09:52:43.081Z,32.90
2018-08-22T09:55:11.876Z,33.09
2018-08-22T09:57:40.869Z,33.38
2018-08-22T10:00:15.196Z,32.82
2018-08-22T10:02:43.919Z,33.02
2018-08-22T10:05:12.825Z,32.89
2018-08-22T10:07:41.665Z,32.84
2018-08-22T10:10:10.485Z,32.86
2018-08-22T10:12:39.305Z,32.88
2018-08-22T10:15:08.148Z,33.11
2018-08-22T10:17:36.964Z,33.29
2018-08-22T10:20:07.152Z,34.18
2018-08-22T10:22:36.037Z,33.89
2018-08-22T10:25:05.019Z,33.62
2018-08-22T10:27:33.863Z,33.85
2018-08-22T10:30:02.736Z,34.14
2018-08-22T10:32:31.599Z,34.02
2018-08-22T10:35:00.398Z,34.11
2018-08-22T10:37:29.241Z,33.88
2018-08-22T10:39:58.058Z,33.80
2018-08-22T10:42:26.869Z,33.53
2018-08-22T10:44:55.677Z,33.58
2018-08-22T10:47:24.508Z,33.61
2018-08-22T10:49:53.416Z,33.36
2018-08-22T10:52:22.270Z,34.30
2018-08-22T10:54:51.079Z,33.56
2018-08-22T10:57:19.889Z,33.86
2018-08-22T10:59:48.747Z,34.63
2018-08-22T11:02:17.566Z,34.87
2018-08-22T11:04:46.392Z,34.08
2018-08-22T11:07:15.231Z,33.73
2018-08-22T11:09:44.065Z,33.72
2018-08-22T11:12:12.887Z,33.94
2018-08-22T11:14:41.752Z,34.01
2018-08-22T11:17:10.621Z,33.92
2018-08-22T11:19:39.458Z,34.04
2018-08-22T11:22:19.314Z,33.74
2018-08-22T11:24:59.012Z,33.79
2018-08-22T11:27:39.023Z,34.32
2018-08-22T11:30:18.858Z,34.58
2018-08-22T11:32:58.770Z,34.87
2018-08-22T11:35:26.171Z,34.55
2018-08-22T11:37:54.980Z,34.88
2018-08-22T11:40:23.812Z,34.84
2018-08-22T11:42:52.594Z,35.33
2018-08-22T11:45:21.375Z,35.05
2018-08-22T11:47:50.821Z,35.79
2018-08-22T11:50:19.653Z,36.24
2018-08-22T11:52:48.473Z,36.26
2018-08-22T11:55:17.326Z,36.20
2018-08-22T11:57:46.148Z,36.12
2018-08-22T12:00:15.091Z,36.07
2018-08-22T12:02:43.914Z,35.27
2018-08-22T12:05:12.734Z,34.98
2018-08-22T12:07:41.507Z,34.76
2018-08-22T12:10:10.340Z,34.95
2018-08-22T12:12:39.187Z,35.31
2018-08-22T12:15:08.015Z,35.06
2018-08-22T12:17:36.875Z,34.86
2018-08-22T12:20:06.205Z,35.26
2018-08-22T12:22:35.148Z,35.09
2018-08-22T12:25:04.012Z,35.00
2018-08-22T12:27:32.821Z,35.30
2018-08-22T12:30:01.665Z,35.73
2018-08-22T12:32:30.571Z,35.12
2018-08-22T12:34:59.410Z,34.85
2018-08-22T12:37:29.292Z,34.75
2018-08-22T12:39:58.166Z,35.27
2018-08-22T12:42:27.078Z,35.39
2018-08-22T12:44:55.980Z,35.62
2018-08-22T12:47:24.783Z,35.35
2018-08-22T12:49:53.621Z,35.43
2018-08-22T12:52:22.460Z,35.00
2018-08-22T12:54:51.286Z,35.16
2018-08-22T12:57:20.197Z,35.41
2018-08-22T12:59:48.995Z,35.29
2018-08-22T13:02:17.846Z,35.40
2018-08-22T13:04:46.688Z,34.94
2018-08-22T13:07:15.559Z,34.87
2018-08-22T13:09:44.432Z,34.88
2018-08-22T13:12:13.189Z,35.17
2018-08-22T13:14:42.001Z,34.54
2018-08-22T13:17:10.854Z,34.49
2018-08-22T13:19:39.637Z,35.65
2018-08-22T13:22:08.497Z,35.45
2018-08-22T13:24:37.340Z,35.54
2018-08-22T13:27:06.297Z,35.56
2018-08-22T13:29:35.729Z,35.80
2018-08-22T13:32:04.874Z,35.24
2018-08-22T13:34:33.963Z,34.80
2018-08-22T13:37:03.194Z,34.74
2018-08-22T13:39:32.437Z,35.01
2018-08-22T13:42:01.803Z,34.81
2018-08-22T13:44:31.145Z,34.39
2018-08-22T13:47:00.343Z,34.41
2018-08-22T13:49:29.730Z,34.47
2018-08-22T13:51:59.314Z,34.37
2018-08-22T13:54:28.629Z,34.65
2018-08-22T13:56:58.867Z,34.43
2018-08-22T13:59:28.043Z,34.75
2018-08-22T14:01:57.014Z,34.50
2018-08-22T14:04:26.121Z,34.15
2018-08-22T14:06:55.173Z,33.83
2018-08-22T14:09:25.139Z,34.20
2018-08-22T14:11:54.492Z,34.43
2018-08-22T14:14:23.675Z,34.40
2018-08-22T14:16:53.206Z,34.07
2018-08-22T14:19:22.449Z,33.98
2018-08-22T14:21:51.640Z,33.80
2018-08-22T14:24:21.034Z,33.79
2018-08-22T14:26:50.153Z,34.21
2018-08-22T14:29:19.325Z,34.41
2018-08-22T14:31:48.936Z,34.44
2018-08-22T14:34:18.116Z,34.65
2018-08-22T14:36:47.450Z,34.60
2018-08-22T14:39:16.906Z,35.17
2018-08-22T14:41:45.949Z,34.66
2018-08-22T14:44:15.043Z,34.82
2018-08-22T14:46:44.253Z,34.94
2018-08-22T14:49:13.405Z,35.58
2018-08-22T14:51:42.638Z,35.05
2018-08-22T14:54:11.928Z,34.31
2018-08-22T14:56:41.076Z,34.01
2018-08-22T14:59:10.362Z,34.54
2018-08-22T15:01:39.687Z,35.23
2018-08-22T15:04:08.926Z,35.71
2018-08-22T15:06:38.187Z,35.22
2018-08-22T15:09:13.211Z,35.52
2018-08-22T15:11:42.384Z,35.29
2018-08-22T15:14:11.768Z,35.66
2018-08-22T15:16:41.200Z,34.90
2018-08-22T15:19:10.392Z,34.54
2018-08-22T15:21:39.791Z,34.81
2018-08-22T15:24:09.322Z,34.60
2018-08-22T15:26:38.491Z,34.43
2018-08-22T15:29:08.643Z,34.90
2018-08-22T15:31:37.704Z,35.24
2018-08-22T15:34:08.300Z,35.09
2018-08-22T15:36:42.446Z,34.59
2018-08-22T15:39:12.643Z,35.19
2018-08-22T15:41:43.016Z,35.25
2018-08-22T15:44:13.298Z,34.88
2018-08-22T15:46:42.891Z,34.52
2018-08-22T15:49:13.341Z,34.53
2018-08-22T15:51:45.843Z,35.19
2018-08-22T15:54:17.148Z,34.88
2018-08-22T15:56:49.625Z,34.64
2018-08-22T15:59:21.581Z,35.07
2018-08-22T16:01:53.136Z,35.58
2018-08-22T16:04:23.203Z,34.99
2018-08-22T16:07:00.902Z,34.50
2018-08-22T16:09:32.111Z,34.21
2018-08-22T16:12:01.919Z,34.29
2018-08-22T16:14:34.277Z,33.97
2018-08-22T16:17:03.455Z,34.10
2018-08-22T16:19:33.955Z,34.12
2018-08-22T16:22:04.042Z,33.92
2018-08-22T16:24:33.481Z,33.88
2018-08-22T16:27:02.732Z,34.04
2018-08-22T16:29:31.984Z,34.07
2018-08-22T16:32:01.310Z,34.00
2018-08-22T16:34:30.567Z,34.08
2018-08-22T16:37:00.100Z,33.63
2018-08-22T16:39:40.763Z,33.64
2018-08-22T16:42:10.498Z,33.83
2018-08-22T16:44:39.973Z,33.90
2018-08-22T16:47:09.240Z,33.72
2018-08-22T16:49:39.691Z,33.54
2018-08-22T16:52:08.789Z,33.26
2018-08-22T16:54:37.907Z,33.20
2018-08-22T16:57:07.090Z,33.05
2018-08-22T16:59:36.193Z,33.01
2018-08-22T17:02:05.815Z,32.92
2018-08-22T17:04:35.704Z,32.78
2018-08-22T17:07:09.896Z,32.65
2018-08-22T17:09:38.897Z,32.74
2018-08-22T17:12:07.993Z,32.68
2018-08-22T17:14:37.072Z,32.51
2018-08-22T17:17:06.270Z,32.40
2018-08-22T17:19:35.482Z,32.43
2018-08-22T17:22:04.650Z,32.36
2018-08-22T17:24:33.770Z,32.29
2018-08-22T17:27:03.566Z,32.23
2018-08-22T17:29:32.696Z,32.34
2018-08-22T17:32:08.525Z,32.19
2018-08-22T17:34:37.613Z,32.17
2018-08-22T17:37:09.590Z,32.10
2018-08-22T17:39:39.324Z,31.82
2018-08-22T17:42:08.499Z,31.27
2018-08-22T17:44:38.187Z,31.06
2018-08-22T17:47:07.508Z,31.28
2018-08-22T17:49:37.256Z,31.38
2018-08-22T17:52:09.474Z,31.73
2018-08-22T17:54:38.666Z,31.97
2018-08-22T17:57:20.674Z,31.16
2018-08-22T17:59:49.830Z,31.12
2018-08-22T18:02:19.160Z,31.66
2018-08-22T18:05:03.005Z,31.57
2018-08-22T18:07:32.274Z,31.30
2018-08-22T18:10:03.337Z,31.93
2018-08-22T18:12:32.879Z,30.58
2018-08-22T18:15:04.219Z,30.05
2018-08-22T18:17:34.354Z,29.76
2018-08-22T18:20:03.716Z,29.48
2018-08-22T18:22:36.896Z,29.29
2018-08-22T18:25:08.002Z,29.20
2018-08-22T18:27:37.244Z,29.11
2018-08-22T18:30:07.832Z,29.04
2018-08-22T18:32:38.223Z,28.68
2018-08-22T18:35:12.302Z,28.79
2018-08-22T18:37:42.865Z,28.46
2018-08-22T18:40:18.942Z,28.43
2018-08-22T18:42:50.124Z,28.35
2018-08-22T18:45:20.041Z,28.39
2018-08-22T18:47:49.188Z,28.46
2018-08-22T18:50:18.729Z,28.41
2018-08-22T18:52:56.033Z,28.33
2018-08-22T18:55:30.462Z,28.32
2018-08-22T18:58:01.261Z,28.33
2018-08-22T19:00:31.002Z,28.30
2018-08-22T19:03:00.172Z,28.24
2018-08-22T19:05:32.488Z,28.10
2018-08-22T19:08:05.866Z,27.98
2018-08-22T19:10:36.987Z,27.86
2018-08-22T19:13:11.403Z,27.46
2018-08-22T19:15:40.610Z,27.62
2018-08-22T19:18:10.631Z,27.58
2018-08-22T19:20:40.059Z,27.55
2018-08-22T19:23:09.300Z,27.50
2018-08-22T19:25:39.056Z,27.49
2018-08-22T19:28:08.382Z,27.44
2018-08-22T19:30:39.089Z,27.55
2018-08-22T19:33:13.471Z,27.63
2018-08-22T19:35:44.867Z,27.60
2018-08-22T19:38:23.893Z,27.61
2018-08-22T19:40:53.182Z,27.56
2018-08-22T19:43:22.442Z,27.44
2018-08-22T19:45:51.787Z,27.33
2018-08-22T19:48:22.607Z,27.31
2018-08-22T19:50:52.973Z,27.16
2018-08-22T19:53:22.467Z,26.82
2018-08-22T19:55:52.138Z,26.65
2018-08-22T19:58:28.402Z,26.63
2018-08-22T20:00:59.130Z,26.51
2018-08-22T20:03:32.351Z,26.31
2018-08-22T20:06:01.826Z,26.17
2018-08-22T20:08:35.044Z,26.24
2018-08-22T20:11:04.421Z,26.22
2018-08-22T20:13:46.974Z,26.44
2018-08-22T20:16:18.158Z,26.50
2018-08-22T20:18:50.215Z,26.55
2018-08-22T20:21:30.548Z,26.67
2018-08-22T20:24:00.315Z,26.50
2018-08-22T20:26:30.219Z,26.42
2018-08-22T20:29:01.279Z,26.32
2018-08-22T20:31:30.606Z,26.20
2018-08-22T20:34:17.336Z,26.12
2018-08-22T20:36:50.587Z,25.74
2018-08-22T20:39:19.780Z,25.99
2018-08-22T20:41:51.201Z,25.89
2018-08-22T20:44:22.154Z,25.50
2018-08-22T20:46:51.370Z,25.94
2018-08-22T20:49:21.680Z,26.00
2018-08-22T20:51:50.870Z,26.10
2018-08-22T20:54:25.107Z,25.91
2018-08-22T20:56:59.415Z,25.91
2018-08-22T20:59:28.565Z,25.87
2018-08-22T21:02:07.637Z,26.31
2018-08-22T21:04:37.293Z,25.85
2018-08-22T21:07:06.815Z,27.09
2018-08-22T21:09:36.090Z,26.88
2018-08-22T21:12:05.607Z,26.62
2018-08-22T21:14:34.987Z,25.87
2018-08-22T21:17:04.791Z,25.42
2018-08-22T21:19:34.111Z,25.24
2018-08-22T21:22:06.438Z,25.00
2018-08-22T21:24:35.778Z,24.99
2018-08-22T21:27:04.816Z,24.89
2018-08-22T21:29:34.174Z,24.78
2018-08-22T21:32:03.425Z,24.69
2018-08-22T21:34:32.776Z,24.55
2018-08-22T21:37:02.696Z,24.53
2018-08-22T21:39:33.864Z,24.35
2018-08-22T21:42:03.376Z,24.48
2018-08-22T21:44:33.159Z,25.04
2018-08-22T21:47:07.324Z,24.78
2018-08-22T21:49:36.623Z,24.57
2018-08-22T21:52:05.868Z,24.40
2018-08-22T21:54:35.292Z,24.25
2018-08-22T21:57:04.662Z,24.18
2018-08-22T21:59:33.863Z,24.18
2018-08-22T22:02:07.214Z,24.15
2018-08-22T22:04:37.720Z,24.13
2018-08-22T22:07:08.133Z,24.13
2018-08-22T22:09:38.372Z,24.22
2018-08-22T22:12:13.071Z,24.58
2018-08-22T22:14:46.189Z,24.67
2018-08-22T22:17:15.772Z,24.52
2018-08-22T22:19:44.978Z,24.69
2018-08-22T22:22:14.150Z,24.34
2018-08-22T22:24:47.643Z,24.00
2018-08-22T22:27:16.805Z,23.85
2018-08-22T22:29:46.129Z,23.72
2018-08-22T22:32:15.285Z,23.69
2018-08-22T22:34:44.742Z,23.65
2018-08-22T22:37:13.959Z,23.57
2018-08-22T22:39:44.770Z,23.67
2018-08-22T22:42:19.311Z,23.84
2018-08-22T22:44:51.231Z,24.16
2018-08-22T22:47:25.930Z,24.33
2018-08-22T22:49:55.490Z,24.21
2018-08-22T22:52:30.870Z,24.24
2018-08-22T22:55:01.273Z,24.22
2018-08-22T22:57:32.370Z,24.24
2018-08-22T23:00:02.219Z,24.20
2018-08-22T23:02:32.178Z,24.22
2018-08-22T23:05:01.954Z,24.18
2018-08-22T23:07:33.885Z,24.18
2018-08-22T23:10:05.597Z,24.15
2018-08-22T23:12:48.924Z,24.01
2018-08-22T23:15:23.209Z,23.97
2018-08-22T23:17:55.062Z,23.93
2018-08-22T23:20:44.648Z,23.92
2018-08-22T23:23:30.864Z,23.86
2018-08-22T23:26:09.648Z,23.85
2018-08-22T23:28:38.805Z,23.89
2018-08-22T23:31:08.195Z,23.97
2018-08-22T23:33:37.421Z,23.97
2018-08-22T23:36:06.615Z,24.07
2018-08-22T23:38:37.466Z,24.19
2018-08-22T23:41:06.618Z,24.23
2018-08-22T23:43:41.788Z,23.91
2018-08-22T23:46:12.376Z,23.97
2018-08-22T23:48:41.859Z,23.82
2018-08-22T23:51:13.102Z,23.72
2018-08-22T23:53:45.232Z,23.62
2018-08-22T23:56:18.215Z,23.37
2018-08-22T23:58:48.426Z,23.52
